sensor_id;sensor_type;location;lat;lon;timestamp;pressure;altitude;pressure_sealevel;temperature;humidity
28665;BME280;15850;47.524;7.814;2023-06-26T00:00:32;97828.16;;;17.51;100.00
28665;BME280;15850;47.524;7.814;2023-06-26T00:02:57;97280.88;;;13.97;100.00
28665;BME280;15850;47.524;7.814;2023-06-26T00:05:24;97672.88;;;16.52;100.00
28665;BME280;15850;47.524;7.814;2023-06-26T00:07:50;97808.38;;;17.34;100.00
28665;BME280;15850;47.524;7.814;2023-06-26T00:10:15;97809.09;;;17.28;100.00
28665;BME280;15850;47.524;7.814;2023-06-26T00:12:41;97806.94;;;17.07;100.00
28665;BME280;15850;47.524;7.814;2023-06-26T00:15:07;97826.56;;;17.05;100.00
28665;BME280;15850;47.524;7.814;2023-06-26T00:17:33;97817.09;;;17.03;100.00
28665;BME280;15850;47.524;7.814;2023-06-26T00:19:58;97681.16;;;16.22;100.00
28665;BME280;15850;47.524;7.814;2023-06-26T00:22:25;97527.66;;;15.35;100.00
28665;BME280;15850;47.524;7.814;2023-06-26T00:24:51;97381.91;;;14.36;100.00
28665;BME280;15850;47.524;7.814;2023-06-26T00:27:16;97846.13;;;17.00;100.00
28665;BME280;15850;47.524;7.814;2023-06-26T00:29:43;97463.66;;;14.90;100.00
28665;BME280;15850;47.524;7.814;2023-06-26T00:32:08;97690.81;;;16.09;100.00
28665;BME280;15850;47.524;7.814;2023-06-26T00:34:34;97812.00;;;17.05;100.00
28665;BME280;15850;47.524;7.814;2023-06-26T00:37:00;97672.91;;;16.18;100.00
28665;BME280;15850;47.524;7.814;2023-06-26T00:39:27;97744.94;;;16.42;100.00
28665;BME280;15850;47.524;7.814;2023-06-26T00:41:52;97674.03;;;15.84;100.00
28665;BME280;15850;47.524;7.814;2023-06-26T00:44:18;97819.75;;;16.92;100.00
28665;BME280;15850;47.524;7.814;2023-06-26T00:46:43;97823.63;;;16.91;100.00
28665;BME280;15850;47.524;7.814;2023-06-26T00:49:10;97435.13;;;14.15;100.00
28665;BME280;15850;47.524;7.814;2023-06-26T00:51:36;97802.19;;;16.70;100.00
28665;BME280;15850;47.524;7.814;2023-06-26T00:54:02;97606.13;;;15.47;100.00
28665;BME280;15850;47.524;7.814;2023-06-26T00:56:30;97651.66;;;15.82;100.00
28665;BME280;15850;47.524;7.814;2023-06-26T00:58:56;97798.56;;;16.62;100.00
28665;BME280;15850;47.524;7.814;2023-06-26T01:01:25;97810.53;;;16.47;100.00
28665;BME280;15850;47.524;7.814;2023-06-26T01:03:51;97776.31;;;16.41;100.00
28665;BME280;15850;47.524;7.814;2023-06-26T01:06:18;97810.97;;;16.79;100.00
28665;BME280;15850;47.524;7.814;2023-06-26T01:08:45;97809.25;;;16.71;100.00
28665;BME280;15850;47.524;7.814;2023-06-26T01:11:11;97653.38;;;15.63;100.00
28665;BME280;15850;47.524;7.814;2023-06-26T01:13:39;97814.38;;;16.73;100.00
28665;BME280;15850;47.524;7.814;2023-06-26T01:16:05;97691.72;;;15.86;100.00
28665;BME280;15850;47.524;7.814;2023-06-26T01:18:32;97807.31;;;16.41;100.00
28665;BME280;15850;47.524;7.814;2023-06-26T01:21:00;97799.53;;;16.47;100.00
28665;BME280;15850;47.524;7.814;2023-06-26T01:23:30;97806.59;;;16.48;100.00
28665;BME280;15850;47.524;7.814;2023-06-26T01:26:09;97748.97;;;16.18;100.00
28665;BME280;15850;47.524;7.814;2023-06-26T01:28:38;97808.34;;;16.60;100.00
28665;BME280;15850;47.524;7.814;2023-06-26T01:31:05;97445.69;;;14.17;100.00
28665;BME280;15850;47.524;7.814;2023-06-26T01:33:32;97742.25;;;16.15;100.00
28665;BME280;15850;47.524;7.814;2023-06-26T01:35:58;97756.94;;;16.27;100.00
28665;BME280;15850;47.524;7.814;2023-06-26T01:38:23;97658.63;;;15.49;100.00
28665;BME280;15850;47.524;7.814;2023-06-26T01:40:49;97804.34;;;16.54;100.00
28665;BME280;15850;47.524;7.814;2023-06-26T01:43:20;97803.50;;;16.50;100.00
28665;BME280;15850;47.524;7.814;2023-06-26T01:45:50;97792.47;;;16.46;100.00
28665;BME280;15850;47.524;7.814;2023-06-26T01:48:20;97367.63;;;13.73;100.00
28665;BME280;15850;47.524;7.814;2023-06-26T01:50:50;97772.66;;;16.30;100.00
28665;BME280;15850;47.524;7.814;2023-06-26T01:53:18;97797.53;;;16.44;100.00
28665;BME280;15850;47.524;7.814;2023-06-26T01:55:49;97792.03;;;16.44;100.00
28665;BME280;15850;47.524;7.814;2023-06-26T01:58:19;97796.94;;;16.28;100.00
28665;BME280;15850;47.524;7.814;2023-06-26T02:00:48;97794.03;;;16.17;100.00
28665;BME280;15850;47.524;7.814;2023-06-26T02:03:13;97792.41;;;16.12;100.00
28665;BME280;15850;47.524;7.814;2023-06-26T02:05:39;97798.69;;;16.13;100.00
28665;BME280;15850;47.524;7.814;2023-06-26T02:08:05;97823.03;;;16.14;100.00
28665;BME280;15850;47.524;7.814;2023-06-26T02:10:30;97793.56;;;16.11;100.00
28665;BME280;15850;47.524;7.814;2023-06-26T02:12:56;97738.44;;;15.93;100.00
28665;BME280;15850;47.524;7.814;2023-06-26T02:15:23;97797.28;;;16.23;100.00
28665;BME280;15850;47.524;7.814;2023-06-26T02:17:49;97794.13;;;16.24;100.00
28665;BME280;15850;47.524;7.814;2023-06-26T02:20:15;97660.78;;;15.36;100.00
28665;BME280;15850;47.524;7.814;2023-06-26T02:22:40;97769.63;;;15.82;100.00
28665;BME280;15850;47.524;7.814;2023-06-26T02:25:08;97338.31;;;12.85;100.00
28665;BME280;15850;47.524;7.814;2023-06-26T02:27:34;97645.56;;;14.66;100.00
28665;BME280;15850;47.524;7.814;2023-06-26T02:30:00;97801.31;;;16.06;100.00
28665;BME280;15850;47.524;7.814;2023-06-26T02:32:26;97277.44;;;12.42;100.00
28665;BME280;15850;47.524;7.814;2023-06-26T02:34:52;97796.53;;;15.99;100.00
28665;BME280;15850;47.524;7.814;2023-06-26T02:37:18;97798.44;;;15.95;100.00
28665;BME280;15850;47.524;7.814;2023-06-26T02:39:43;97801.91;;;15.92;100.00
28665;BME280;15850;47.524;7.814;2023-06-26T02:42:09;97807.41;;;15.92;100.00
28665;BME280;15850;47.524;7.814;2023-06-26T02:44:35;97659.47;;;14.77;100.00
28665;BME280;15850;47.524;7.814;2023-06-26T02:47:01;97805.22;;;15.78;100.00
28665;BME280;15850;47.524;7.814;2023-06-26T02:49:28;97726.41;;;15.25;100.00
28665;BME280;15850;47.524;7.814;2023-06-26T02:51:53;97806.50;;;15.84;100.00
28665;BME280;15850;47.524;7.814;2023-06-26T02:54:25;97804.06;;;15.79;100.00
28665;BME280;15850;47.524;7.814;2023-06-26T02:56:54;97813.63;;;15.89;100.00
28665;BME280;15850;47.524;7.814;2023-06-26T02:59:24;97719.41;;;15.28;100.00
28665;BME280;15850;47.524;7.814;2023-06-26T03:01:51;97670.28;;;14.93;100.00
28665;BME280;15850;47.524;7.814;2023-06-26T03:04:16;97804.88;;;15.80;100.00
28665;BME280;15850;47.524;7.814;2023-06-26T03:06:43;97416.47;;;13.13;100.00
28665;BME280;15850;47.524;7.814;2023-06-26T03:09:10;97218.81;;;11.97;100.00
28665;BME280;15850;47.524;7.814;2023-06-26T03:11:36;97806.75;;;15.76;100.00
28665;BME280;15850;47.524;7.814;2023-06-26T03:14:01;97236.63;;;12.11;100.00
28665;BME280;15850;47.524;7.814;2023-06-26T03:16:27;97524.69;;;13.95;100.00
28665;BME280;15850;47.524;7.814;2023-06-26T03:18:52;97726.00;;;15.23;100.00
28665;BME280;15850;47.524;7.814;2023-06-26T03:21:18;97813.94;;;15.84;100.00
28665;BME280;15850;47.524;7.814;2023-06-26T03:23:45;97674.50;;;14.87;100.00
28665;BME280;15850;47.524;7.814;2023-06-26T03:26:11;97240.06;;;12.08;100.00
28665;BME280;15850;47.524;7.814;2023-06-26T03:28:38;97790.25;;;15.49;100.00
28665;BME280;15850;47.524;7.814;2023-06-26T03:31:03;97810.66;;;15.74;100.00
28665;BME280;15850;47.524;7.814;2023-06-26T03:33:30;97814.13;;;15.71;100.00
28665;BME280;15850;47.524;7.814;2023-06-26T03:35:56;97805.78;;;15.64;100.00
28665;BME280;15850;47.524;7.814;2023-06-26T03:38:22;97561.59;;;14.05;100.00
28665;BME280;15850;47.524;7.814;2023-06-26T03:40:49;97791.28;;;15.41;100.00
28665;BME280;15850;47.524;7.814;2023-06-26T03:43:15;97812.38;;;15.60;100.00
28665;BME280;15850;47.524;7.814;2023-06-26T03:46:03;97699.81;;;14.80;100.00
28665;BME280;15850;47.524;7.814;2023-06-26T03:48:29;97821.72;;;15.59;100.00
28665;BME280;15850;47.524;7.814;2023-06-26T03:50:55;97798.06;;;15.47;100.00
28665;BME280;15850;47.524;7.814;2023-06-26T03:53:20;97820.28;;;15.65;100.00
28665;BME280;15850;47.524;7.814;2023-06-26T03:55:46;97824.44;;;15.78;100.00
28665;BME280;15850;47.524;7.814;2023-06-26T03:58:13;97823.59;;;15.74;100.00
28665;BME280;15850;47.524;7.814;2023-06-26T04:00:39;97810.72;;;15.55;100.00
28665;BME280;15850;47.524;7.814;2023-06-26T04:03:04;97374.16;;;12.84;100.00
28665;BME280;15850;47.524;7.814;2023-06-26T04:05:30;97836.94;;;15.76;100.00
28665;BME280;15850;47.524;7.814;2023-06-26T04:07:56;97831.63;;;15.86;100.00
28665;BME280;15850;47.524;7.814;2023-06-26T04:10:21;97776.47;;;15.45;100.00
28665;BME280;15850;47.524;7.814;2023-06-26T04:12:47;97761.81;;;15.34;100.00
28665;BME280;15850;47.524;7.814;2023-06-26T04:15:14;97832.47;;;15.90;100.00
28665;BME280;15850;47.524;7.814;2023-06-26T04:17:40;97860.69;;;15.91;100.00
28665;BME280;15850;47.524;7.814;2023-06-26T04:20:06;97785.50;;;15.69;100.00
28665;BME280;15850;47.524;7.814;2023-06-26T04:22:32;97731.03;;;15.44;100.00
28665;BME280;15850;47.524;7.814;2023-06-26T04:24:58;97771.56;;;15.81;100.00
28665;BME280;15850;47.524;7.814;2023-06-26T04:27:23;97776.56;;;16.02;100.00
28665;BME280;15850;47.524;7.814;2023-06-26T04:29:49;97524.41;;;14.50;100.00
28665;BME280;15850;47.524;7.814;2023-06-26T04:32:16;97805.34;;;16.42;100.00
28665;BME280;15850;47.524;7.814;2023-06-26T04:34:41;97846.13;;;16.70;100.00
28665;BME280;15850;47.524;7.814;2023-06-26T04:37:07;97772.09;;;16.17;100.00
28665;BME280;15850;47.524;7.814;2023-06-26T04:39:32;97672.81;;;15.55;100.00
28665;BME280;15850;47.524;7.814;2023-06-26T04:41:58;97861.56;;;16.78;100.00
28665;BME280;15850;47.524;7.814;2023-06-26T04:44:23;97855.03;;;16.90;100.00
28665;BME280;15850;47.524;7.814;2023-06-26T04:46:49;97799.94;;;16.76;100.00
28665;BME280;15850;47.524;7.814;2023-06-26T04:49:16;97852.94;;;17.13;100.00
28665;BME280;15850;47.524;7.814;2023-06-26T04:51:41;97819.56;;;17.15;100.00
28665;BME280;15850;47.524;7.814;2023-06-26T04:54:07;97855.72;;;17.54;100.00
28665;BME280;15850;47.524;7.814;2023-06-26T04:56:33;97866.97;;;17.79;100.00
28665;BME280;15850;47.524;7.814;2023-06-26T04:58:58;97848.59;;;17.94;100.00
28665;BME280;15850;47.524;7.814;2023-06-26T05:01:24;97655.78;;;16.66;100.00
28665;BME280;15850;47.524;7.814;2023-06-26T05:03:49;97791.13;;;17.82;100.00
28665;BME280;15850;47.524;7.814;2023-06-26T05:06:16;97859.38;;;18.14;100.00
28665;BME280;15850;47.524;7.814;2023-06-26T05:08:42;97812.63;;;17.69;100.00
28665;BME280;15850;47.524;7.814;2023-06-26T05:11:08;97780.72;;;17.65;100.00
28665;BME280;15850;47.524;7.814;2023-06-26T05:13:33;97621.69;;;16.74;100.00
28665;BME280;15850;47.524;7.814;2023-06-26T05:15:59;97845.22;;;18.12;100.00
28665;BME280;15850;47.524;7.814;2023-06-26T05:18:24;97851.66;;;18.41;100.00
28665;BME280;15850;47.524;7.814;2023-06-26T05:20:50;97849.34;;;18.46;100.00
28665;BME280;15850;47.524;7.814;2023-06-26T05:23:18;97468.13;;;16.07;100.00
28665;BME280;15850;47.524;7.814;2023-06-26T05:25:44;97842.28;;;18.49;100.00
28665;BME280;15850;47.524;7.814;2023-06-26T05:28:10;97856.88;;;18.57;100.00
28665;BME280;15850;47.524;7.814;2023-06-26T05:30:36;97616.56;;;17.17;100.00
28665;BME280;15850;47.524;7.814;2023-06-26T05:33:03;97828.94;;;18.54;100.00
28665;BME280;15850;47.524;7.814;2023-06-26T05:35:30;97740.75;;;17.78;100.00
28665;BME280;15850;47.524;7.814;2023-06-26T05:37:56;97848.25;;;18.62;100.00
28665;BME280;15850;47.524;7.814;2023-06-26T05:40:24;97742.50;;;18.07;100.00
28665;BME280;15850;47.524;7.814;2023-06-26T05:42:50;97862.13;;;18.76;100.00
28665;BME280;15850;47.524;7.814;2023-06-26T05:45:16;97866.88;;;18.86;100.00
28665;BME280;15850;47.524;7.814;2023-06-26T05:47:42;97809.66;;;18.54;100.00
28665;BME280;15850;47.524;7.814;2023-06-26T05:50:09;97827.88;;;18.77;100.00
28665;BME280;15850;47.524;7.814;2023-06-26T05:52:35;97853.56;;;19.06;100.00
28665;BME280;15850;47.524;7.814;2023-06-26T05:55:01;97859.88;;;19.14;100.00
28665;BME280;15850;47.524;7.814;2023-06-26T05:57:29;97755.72;;;18.53;100.00
28665;BME280;15850;47.524;7.814;2023-06-26T05:59:56;97849.72;;;19.46;100.00
28665;BME280;15850;47.524;7.814;2023-06-26T06:02:22;97855.66;;;19.52;100.00
28665;BME280;15850;47.524;7.814;2023-06-26T06:04:48;97858.44;;;19.66;100.00
28665;BME280;15850;47.524;7.814;2023-06-26T06:07:13;97631.31;;;18.37;100.00
28665;BME280;15850;47.524;7.814;2023-06-26T06:09:39;97844.28;;;19.79;100.00
28665;BME280;15850;47.524;7.814;2023-06-26T06:12:05;97840.34;;;19.90;100.00
28665;BME280;15850;47.524;7.814;2023-06-26T06:14:32;97857.69;;;20.05;100.00
28665;BME280;15850;47.524;7.814;2023-06-26T06:16:58;97863.59;;;20.14;100.00
28665;BME280;15850;47.524;7.814;2023-06-26T06:19:24;97864.34;;;20.26;100.00
28665;BME280;15850;47.524;7.814;2023-06-26T06:21:49;97856.47;;;20.31;100.00
28665;BME280;15850;47.524;7.814;2023-06-26T06:24:15;97690.88;;;19.56;100.00
28665;BME280;15850;47.524;7.814;2023-06-26T06:26:40;97767.31;;;20.20;100.00
28665;BME280;15850;47.524;7.814;2023-06-26T06:29:06;97594.75;;;18.51;100.00
28665;BME280;15850;47.524;7.814;2023-06-26T06:31:33;97845.06;;;20.08;100.00
28665;BME280;15850;47.524;7.814;2023-06-26T06:33:58;97793.72;;;20.21;100.00
28665;BME280;15850;47.524;7.814;2023-06-26T06:36:24;97856.38;;;20.78;100.00
28665;BME280;15850;47.524;7.814;2023-06-26T06:38:49;97729.09;;;19.93;100.00
28665;BME280;15850;47.524;7.814;2023-06-26T06:41:15;97607.78;;;19.15;100.00
28665;BME280;15850;47.524;7.814;2023-06-26T06:43:41;97834.66;;;20.76;100.00
28665;BME280;15850;47.524;7.814;2023-06-26T06:46:06;97860.19;;;21.09;100.00
28665;BME280;15850;47.524;7.814;2023-06-26T06:48:34;97864.88;;;21.23;100.00
28665;BME280;15850;47.524;7.814;2023-06-26T06:50:59;97784.38;;;20.96;100.00
28665;BME280;15850;47.524;7.814;2023-06-26T06:53:25;97789.41;;;21.15;100.00
28665;BME280;15850;47.524;7.814;2023-06-26T06:55:50;97768.16;;;21.01;100.00
28665;BME280;15850;47.524;7.814;2023-06-26T06:58:16;97640.41;;;19.81;100.00
28665;BME280;15850;47.524;7.814;2023-06-26T07:00:42;97835.25;;;21.16;100.00
28665;BME280;15850;47.524;7.814;2023-06-26T07:03:07;97700.03;;;20.62;100.00
28665;BME280;15850;47.524;7.814;2023-06-26T07:05:34;97753.63;;;20.90;100.00
28665;BME280;15850;47.524;7.814;2023-06-26T07:08:00;97562.19;;;20.02;100.00
28665;BME280;15850;47.524;7.814;2023-06-26T07:10:25;97464.25;;;19.51;100.00
28665;BME280;15850;47.524;7.814;2023-06-26T07:12:51;97702.34;;;21.30;99.90
28665;BME280;15850;47.524;7.814;2023-06-26T07:15:16;97533.28;;;20.24;90.64
28665;BME280;15850;47.524;7.814;2023-06-26T07:17:42;97729.69;;;21.73;100.00
28665;BME280;15850;47.524;7.814;2023-06-26T07:20:08;97864.94;;;22.65;89.83
28665;BME280;15850;47.524;7.814;2023-06-26T07:22:35;97786.69;;;22.16;81.41
28665;BME280;15850;47.524;7.814;2023-06-26T07:25:01;97867.72;;;23.03;86.44
28665;BME280;15850;47.524;7.814;2023-06-26T07:27:27;97845.50;;;23.03;81.32
28665;BME280;15850;47.524;7.814;2023-06-26T07:29:52;97851.16;;;23.26;75.21
28665;BME280;15850;47.524;7.814;2023-06-26T07:32:18;97872.53;;;23.56;78.09
28665;BME280;15850;47.524;7.814;2023-06-26T07:34:43;97807.56;;;23.50;81.10
28665;BME280;15850;47.524;7.814;2023-06-26T07:37:09;97817.72;;;23.60;78.44
28665;BME280;15850;47.524;7.814;2023-06-26T07:39:35;97872.47;;;24.14;74.01
28665;BME280;15850;47.524;7.814;2023-06-26T07:42:01;97522.47;;;21.99;76.72
28665;BME280;15850;47.524;7.814;2023-06-26T07:44:27;97858.53;;;24.37;68.79
28665;BME280;15850;47.524;7.814;2023-06-26T07:46:52;97626.78;;;22.70;67.12
28665;BME280;15850;47.524;7.814;2023-06-26T07:49:18;97811.34;;;24.10;67.28
28665;BME280;15850;47.524;7.814;2023-06-26T07:51:43;97859.09;;;24.52;66.20
28665;BME280;15850;47.524;7.814;2023-06-26T07:54:09;97820.59;;;24.27;60.07
28665;BME280;15850;47.524;7.814;2023-06-26T07:56:52;97465.16;;;22.23;57.01
28665;BME280;15850;47.524;7.814;2023-06-26T07:59:18;97866.50;;;24.99;55.47
28665;BME280;15850;47.524;7.814;2023-06-26T08:01:43;97521.44;;;22.94;57.10
28665;BME280;15850;47.524;7.814;2023-06-26T08:04:09;97884.59;;;25.30;56.25
28665;BME280;15850;47.524;7.814;2023-06-26T08:06:34;97864.94;;;25.38;59.46
28665;BME280;15850;47.524;7.814;2023-06-26T08:09:00;97865.34;;;25.36;57.36
28665;BME280;15850;47.524;7.814;2023-06-26T08:11:25;97877.63;;;25.39;56.82
28665;BME280;15850;47.524;7.814;2023-06-26T08:13:52;97505.91;;;23.20;52.89
28665;BME280;15850;47.524;7.814;2023-06-26T08:16:18;97787.38;;;25.00;54.88
28665;BME280;15850;47.524;7.814;2023-06-26T08:18:43;97868.03;;;25.60;54.75
28665;BME280;15850;47.524;7.814;2023-06-26T08:21:09;97865.47;;;25.49;63.68
28665;BME280;15850;47.524;7.814;2023-06-26T08:23:34;97860.88;;;25.75;53.60
28665;BME280;15850;47.524;7.814;2023-06-26T08:26:00;97863.66;;;25.59;52.61
28665;BME280;15850;47.524;7.814;2023-06-26T08:28:25;97818.13;;;25.13;53.78
28665;BME280;15850;47.524;7.814;2023-06-26T08:30:52;97780.38;;;25.12;55.56
28665;BME280;15850;47.524;7.814;2023-06-26T08:33:18;97778.59;;;25.01;53.62
28665;BME280;15850;47.524;7.814;2023-06-26T08:35:43;97850.59;;;25.72;54.31
28665;BME280;15850;47.524;7.814;2023-06-26T08:38:09;97668.53;;;24.64;54.07
28665;BME280;15850;47.524;7.814;2023-06-26T08:40:34;97806.38;;;25.41;54.36
28665;BME280;15850;47.524;7.814;2023-06-26T08:43:00;97845.28;;;25.45;56.69
28665;BME280;15850;47.524;7.814;2023-06-26T08:45:25;97814.69;;;25.25;56.04
28665;BME280;15850;47.524;7.814;2023-06-26T08:47:53;97541.47;;;23.68;58.88
28665;BME280;15850;47.524;7.814;2023-06-26T08:50:23;97780.75;;;25.14;57.05
28665;BME280;15850;47.524;7.814;2023-06-26T08:52:53;97635.13;;;24.28;55.26
28665;BME280;15850;47.524;7.814;2023-06-26T08:55:20;97849.56;;;25.66;58.42
28665;BME280;15850;47.524;7.814;2023-06-26T08:57:48;97830.75;;;25.53;71.37
28665;BME280;15850;47.524;7.814;2023-06-26T09:00:15;97843.19;;;25.65;59.01
28665;BME280;15850;47.524;7.814;2023-06-26T09:02:41;97815.34;;;25.49;57.49
28665;BME280;15850;47.524;7.814;2023-06-26T09:05:08;97847.44;;;25.90;56.21
28665;BME280;15850;47.524;7.814;2023-06-26T09:07:33;97813.44;;;25.78;58.01
28665;BME280;15850;47.524;7.814;2023-06-26T09:09:59;97828.81;;;25.87;56.81
28665;BME280;15850;47.524;7.814;2023-06-26T09:12:26;97859.69;;;26.09;56.04
28665;BME280;15850;47.524;7.814;2023-06-26T09:14:53;97855.53;;;26.17;56.88
28665;BME280;15850;47.524;7.814;2023-06-26T09:17:24;97857.84;;;26.18;60.49
28665;BME280;15850;47.524;7.814;2023-06-26T09:19:49;97770.66;;;25.36;57.05
28665;BME280;15850;47.524;7.814;2023-06-26T09:22:16;97785.66;;;25.42;59.52
28665;BME280;15850;47.524;7.814;2023-06-26T09:24:43;97743.81;;;25.09;58.54
28665;BME280;15850;47.524;7.814;2023-06-26T09:27:09;97855.84;;;26.02;57.93
28665;BME280;15850;47.524;7.814;2023-06-26T09:29:35;97806.75;;;25.60;59.78
28665;BME280;15850;47.524;7.814;2023-06-26T09:32:00;97851.09;;;26.19;58.66
28665;BME280;15850;47.524;7.814;2023-06-26T09:34:30;97814.53;;;26.30;57.79
28665;BME280;15850;47.524;7.814;2023-06-26T09:36:56;97849.97;;;26.62;54.33
28665;BME280;15850;47.524;7.814;2023-06-26T09:39:22;97806.34;;;26.39;55.73
28665;BME280;15850;47.524;7.814;2023-06-26T09:41:48;97855.78;;;26.68;54.68
28665;BME280;15850;47.524;7.814;2023-06-26T09:44:14;97813.28;;;26.47;56.32
28665;BME280;15850;47.524;7.814;2023-06-26T09:46:39;97800.16;;;26.32;56.82
28665;BME280;15850;47.524;7.814;2023-06-26T09:49:06;97840.91;;;27.00;56.05
28665;BME280;15850;47.524;7.814;2023-06-26T09:51:33;97845.69;;;27.16;55.75
28665;BME280;15850;47.524;7.814;2023-06-26T09:53:59;97843.19;;;27.18;56.28
28665;BME280;15850;47.524;7.814;2023-06-26T09:56:27;97772.53;;;26.66;57.79
28665;BME280;15850;47.524;7.814;2023-06-26T09:58:55;97853.97;;;27.45;54.76
28665;BME280;15850;47.524;7.814;2023-06-26T10:01:20;97793.50;;;27.13;56.60
28665;BME280;15850;47.524;7.814;2023-06-26T10:03:46;97853.31;;;27.67;54.45
28665;BME280;15850;47.524;7.814;2023-06-26T10:06:13;97846.84;;;27.82;52.43
28665;BME280;15850;47.524;7.814;2023-06-26T10:08:41;97847.03;;;27.75;53.16
28665;BME280;15850;47.524;7.814;2023-06-26T10:11:11;97867.63;;;27.81;51.86
28665;BME280;15850;47.524;7.814;2023-06-26T10:13:41;97865.81;;;27.49;54.67
28665;BME280;15850;47.524;7.814;2023-06-26T10:16:08;97853.75;;;27.78;52.97
28665;BME280;15850;47.524;7.814;2023-06-26T10:18:38;97762.50;;;26.69;54.78
28665;BME280;15850;47.524;7.814;2023-06-26T10:21:05;97693.59;;;26.53;53.61
28665;BME280;15850;47.524;7.814;2023-06-26T10:23:32;97662.88;;;26.11;53.65
28665;BME280;15850;47.524;7.814;2023-06-26T10:26:00;97878.84;;;27.14;54.64
28665;BME280;15850;47.524;7.814;2023-06-26T10:28:28;97607.88;;;24.92;60.20
28665;BME280;15850;47.524;7.814;2023-06-26T10:30:55;97805.88;;;25.95;57.08
28665;BME280;15850;47.524;7.814;2023-06-26T10:33:22;97874.16;;;26.53;58.94
28665;BME280;15850;47.524;7.814;2023-06-26T10:35:47;97842.84;;;26.74;54.08
28665;BME280;15850;47.524;7.814;2023-06-26T10:38:13;97885.13;;;26.89;55.51
28665;BME280;15850;47.524;7.814;2023-06-26T10:40:42;97889.22;;;26.84;55.30
28665;BME280;15850;47.524;7.814;2023-06-26T10:43:09;97733.41;;;25.79;56.42
28665;BME280;15850;47.524;7.814;2023-06-26T10:45:35;97876.09;;;26.98;56.49
28665;BME280;15850;47.524;7.814;2023-06-26T10:48:03;97815.94;;;26.67;56.06
28665;BME280;15850;47.524;7.814;2023-06-26T10:50:30;97917.66;;;27.37;57.36
28665;BME280;15850;47.524;7.814;2023-06-26T10:53:12;97731.03;;;26.39;55.69
28665;BME280;15850;47.524;7.814;2023-06-26T10:55:41;97866.81;;;27.43;53.13
28665;BME280;15850;47.524;7.814;2023-06-26T10:58:26;97909.94;;;27.00;54.08
28665;BME280;15850;47.524;7.814;2023-06-26T11:00:52;97638.47;;;24.92;53.01
28665;BME280;15850;47.524;7.814;2023-06-26T11:03:29;97788.66;;;25.84;55.33
28665;BME280;15850;47.524;7.814;2023-06-26T11:06:08;97900.94;;;26.79;54.48
28665;BME280;15850;47.524;7.814;2023-06-26T11:08:44;97910.66;;;26.87;53.58
28665;BME280;15850;47.524;7.814;2023-06-26T11:11:09;97766.00;;;25.82;54.29
28665;BME280;15850;47.524;7.814;2023-06-26T11:13:35;97806.47;;;26.19;54.77
28665;BME280;15850;47.524;7.814;2023-06-26T11:16:01;97904.97;;;26.62;53.66
28665;BME280;15850;47.524;7.814;2023-06-26T11:18:28;97842.91;;;26.41;54.50
28665;BME280;15850;47.524;7.814;2023-06-26T11:21:04;97909.78;;;26.90;53.62
28665;BME280;15850;47.524;7.814;2023-06-26T11:23:32;97914.75;;;26.37;54.00
28665;BME280;15850;47.524;7.814;2023-06-26T11:26:12;97780.63;;;25.86;52.83
28665;BME280;15850;47.524;7.814;2023-06-26T11:28:38;97829.22;;;26.47;51.56
28665;BME280;15850;47.524;7.814;2023-06-26T11:31:04;97913.66;;;26.80;52.51
28665;BME280;15850;47.524;7.814;2023-06-26T11:33:31;97673.44;;;25.58;53.40
28665;BME280;15850;47.524;7.814;2023-06-26T11:36:08;97903.56;;;27.28;52.90
28665;BME280;15850;47.524;7.814;2023-06-26T11:38:37;97928.78;;;27.25;53.61
28665;BME280;15850;47.524;7.814;2023-06-26T11:41:02;97891.66;;;28.04;51.09
28665;BME280;15850;47.524;7.814;2023-06-26T11:43:28;97814.03;;;27.06;50.59
28665;BME280;15850;47.524;7.814;2023-06-26T11:45:53;97719.25;;;26.61;50.33
28665;BME280;15850;47.524;7.814;2023-06-26T11:48:19;97934.47;;;27.21;51.39
28665;BME280;15850;47.524;7.814;2023-06-26T11:50:50;97904.31;;;27.16;51.24
28665;BME280;15850;47.524;7.814;2023-06-26T11:53:15;97746.34;;;26.47;50.64
28665;BME280;15850;47.524;7.814;2023-06-26T11:55:41;97904.47;;;27.51;51.81
28665;BME280;15850;47.524;7.814;2023-06-26T11:58:07;97732.75;;;26.50;50.18
28665;BME280;15850;47.524;7.814;2023-06-26T12:00:33;97837.75;;;27.27;47.78
28665;BME280;15850;47.524;7.814;2023-06-26T12:02:59;97932.28;;;27.41;49.90
28665;BME280;15850;47.524;7.814;2023-06-26T12:05:25;97528.31;;;24.94;49.71
28665;BME280;15850;47.524;7.814;2023-06-26T12:07:52;97811.94;;;26.23;49.05
28665;BME280;15850;47.524;7.814;2023-06-26T12:10:20;97799.09;;;26.25;49.84
28665;BME280;15850;47.524;7.814;2023-06-26T12:12:46;97901.56;;;27.00;50.77
28665;BME280;15850;47.524;7.814;2023-06-26T12:15:17;97704.44;;;25.60;49.52
28665;BME280;15850;47.524;7.814;2023-06-26T12:17:43;97866.06;;;26.71;51.91
28665;BME280;15850;47.524;7.814;2023-06-26T12:20:17;97493.03;;;24.58;48.58
28665;BME280;15850;47.524;7.814;2023-06-26T12:22:45;97904.13;;;27.23;50.91
28665;BME280;15850;47.524;7.814;2023-06-26T12:25:12;97795.88;;;26.73;48.68
28665;BME280;15850;47.524;7.814;2023-06-26T12:27:38;97717.75;;;26.14;49.92
28665;BME280;15850;47.524;7.814;2023-06-26T12:30:04;97808.72;;;26.83;47.85
28665;BME280;15850;47.524;7.814;2023-06-26T12:32:30;97903.28;;;27.52;49.80
28665;BME280;15850;47.524;7.814;2023-06-26T12:34:56;97875.56;;;27.03;48.47
28665;BME280;15850;47.524;7.814;2023-06-26T12:37:22;97582.66;;;25.15;50.48
28665;BME280;15850;47.524;7.814;2023-06-26T12:39:52;97921.72;;;27.49;48.52
28665;BME280;15850;47.524;7.814;2023-06-26T12:42:21;97908.66;;;27.72;49.80
28665;BME280;15850;47.524;7.814;2023-06-26T12:44:47;97791.78;;;27.03;50.04
28665;BME280;15850;47.524;7.814;2023-06-26T12:47:14;97677.41;;;26.19;47.63
28665;BME280;15850;47.524;7.814;2023-06-26T12:49:41;97598.03;;;25.20;48.10
28665;BME280;15850;47.524;7.814;2023-06-26T12:52:09;97905.03;;;27.33;48.20